DAMIA LGMK-OMSJ
Flight info
| Callsign | DAMIA |
|---|---|
| Flight time | 3h 51m |
| Altitude | 35000 |
| Route | PIDAX UL995 VANZA DCT LAKTO L324 GENIV L550 KARIK B411 ULINA DCT DEESA Y415 BOSAL/N0475F370 Y415 LOTOK P559 TOMSO/N0482F310 P559 KIVUS L305 EMOTA R784 GONVI |
| Aircraft | CL60/M-SBDE1E2E3FGHIJ1J4J5J7M3RWXYZ/LB1V1D1 |
Departure
| Time | 2026-05-07 12:35 |
|---|---|
| Airport | Mykonos Island National Airport (LGMK) |
Arrival
| Time | 2026-05-07 16:26 |
|---|---|
| Airport | Sharjah International Airport (OMSJ) |
| Time | Latitude | Longitude | Altitude | Speed | Heading |
|---|---|---|---|---|---|
| 2026-05-07 11:46 | 37.43617 | 25.34589 | 404 ft | 0 kts | 252° |
| 2026-05-07 12:28 | 37.43621 | 25.34606 | 404 ft | 2 kts | 253° |
| 2026-05-07 12:28 | 37.43624 | 25.34624 | 405 ft | 2 kts | 267° |
| 2026-05-07 12:28 | 37.43622 | 25.34642 | 406 ft | 2 kts | 288° |
| 2026-05-07 12:28 | 37.43615 | 25.34659 | 406 ft | 2 kts | 310° |
| 2026-05-07 12:29 | 37.43603 | 25.34671 | 406 ft | 2 kts | 331° |
| 2026-05-07 12:29 | 37.43595 | 25.34675 | 406 ft | 0 kts | 341° |
| 2026-05-07 12:32 | 37.43600 | 25.34673 | 406 ft | 4 kts | 342° |
| 2026-05-07 12:32 | 37.43688 | 25.34713 | 405 ft | 21 kts | 30° |
| 2026-05-07 12:32 | 37.43841 | 25.34681 | 401 ft | 25 kts | 341° |
| 2026-05-07 12:33 | 37.44183 | 25.34530 | 383 ft | 21 kts | 340° |
| 2026-05-07 12:33 | 37.44274 | 25.34458 | 381 ft | 11 kts | 320° |
| 2026-05-07 12:33 | 37.44303 | 25.34480 | 381 ft | 4 kts | 167° |
| 2026-05-07 12:34 | 37.44285 | 25.34483 | 381 ft | 0 kts | 158° |
| 2026-05-07 12:34 | 37.44165 | 25.34537 | 383 ft | 62 kts | 160° |
| 2026-05-07 12:35 | 37.43464 | 25.34848 | 408 ft | 144 kts | 160° |
| 2026-05-07 12:35 | 37.42410 | 25.35317 | 878 ft | 173 kts | 161° |
| 2026-05-07 12:35 | 37.41195 | 25.35852 | 1471 ft | 199 kts | 162° |
| 2026-05-07 12:35 | 37.39882 | 25.36413 | 2199 ft | 200 kts | 161° |
| 2026-05-07 12:36 | 37.38557 | 25.36995 | 2831 ft | 208 kts | 161° |
| 2026-05-07 12:36 | 37.37183 | 25.37598 | 3456 ft | 210 kts | 162° |
| 2026-05-07 12:36 | 37.35793 | 25.38206 | 4087 ft | 212 kts | 161° |
| 2026-05-07 12:36 | 37.34418 | 25.38831 | 4708 ft | 214 kts | 155° |
| 2026-05-07 12:37 | 37.33172 | 25.39925 | 5348 ft | 227 kts | 140° |
| 2026-05-07 12:37 | 37.31911 | 25.41297 | 6002 ft | 255 kts | 139° |
| 2026-05-07 12:37 | 37.30534 | 25.42785 | 6594 ft | 272 kts | 139° |
| 2026-05-07 12:37 | 37.29069 | 25.44365 | 7370 ft | 286 kts | 139° |
| 2026-05-07 12:38 | 37.27543 | 25.46009 | 8148 ft | 292 kts | 139° |
| 2026-05-07 12:38 | 37.26005 | 25.47665 | 8902 ft | 292 kts | 139° |
| 2026-05-07 12:38 | 37.24471 | 25.49315 | 9656 ft | 294 kts | 139° |
| 2026-05-07 12:38 | 37.22993 | 25.51106 | 10415 ft | 299 kts | 126° |
| 2026-05-07 12:39 | 37.22020 | 25.53401 | 11158 ft | 310 kts | 111° |
| 2026-05-07 12:39 | 37.21173 | 25.55981 | 11805 ft | 330 kts | 111° |
| 2026-05-07 12:39 | 37.20274 | 25.58694 | 12446 ft | 348 kts | 111° |
| 2026-05-07 12:39 | 37.19325 | 25.61551 | 13050 ft | 366 kts | 111° |
| 2026-05-07 12:40 | 37.18326 | 25.64552 | 13669 ft | 379 kts | 111° |
| 2026-05-07 12:40 | 37.17297 | 25.67640 | 14287 ft | 387 kts | 112° |
| 2026-05-07 12:40 | 37.16247 | 25.70785 | 14924 ft | 392 kts | 112° |
| 2026-05-07 12:40 | 37.15187 | 25.73945 | 15548 ft | 395 kts | 113° |
| 2026-05-07 12:41 | 37.13843 | 25.76938 | 16167 ft | 399 kts | 123° |
| 2026-05-07 12:41 | 37.12295 | 25.79822 | 16787 ft | 403 kts | 124° |
| 2026-05-07 12:41 | 37.10738 | 25.82740 | 17419 ft | 408 kts | 124° |
| 2026-05-07 12:41 | 37.09156 | 25.85704 | 18031 ft | 416 kts | 124° |
| 2026-05-07 12:42 | 37.07538 | 25.88740 | 18822 ft | 418 kts | 124° |
| 2026-05-07 12:42 | 37.05913 | 25.91784 | 19519 ft | 422 kts | 124° |
| 2026-05-07 12:42 | 37.04290 | 25.94829 | 20193 ft | 426 kts | 124° |
| 2026-05-07 12:42 | 37.02639 | 25.97923 | 20859 ft | 430 kts | 124° |
| 2026-05-07 12:43 | 37.00978 | 26.01034 | 21480 ft | 434 kts | 124° |
| 2026-05-07 12:43 | 36.99297 | 26.04182 | 22088 ft | 438 kts | 124° |
| 2026-05-07 12:43 | 36.97591 | 26.07377 | 22741 ft | 441 kts | 124° |
| 2026-05-07 12:43 | 36.95893 | 26.10553 | 23274 ft | 446 kts | 124° |
| 2026-05-07 12:44 | 36.94154 | 26.13804 | 23779 ft | 451 kts | 124° |
| 2026-05-07 12:44 | 36.92413 | 26.17056 | 24303 ft | 456 kts | 124° |
| 2026-05-07 12:44 | 36.90638 | 26.20371 | 24842 ft | 459 kts | 124° |
| 2026-05-07 12:44 | 36.88854 | 26.23698 | 25359 ft | 463 kts | 124° |
| 2026-05-07 12:45 | 36.87060 | 26.27042 | 25817 ft | 467 kts | 124° |
| 2026-05-07 12:45 | 36.85260 | 26.30392 | 26276 ft | 471 kts | 124° |
| 2026-05-07 12:45 | 36.83413 | 26.33829 | 26724 ft | 475 kts | 124° |
| 2026-05-07 12:45 | 36.81585 | 26.37226 | 27141 ft | 479 kts | 124° |
| 2026-05-07 12:46 | 36.79725 | 26.40681 | 27530 ft | 482 kts | 124° |
| 2026-05-07 12:46 | 36.77851 | 26.44159 | 27988 ft | 484 kts | 124° |
| 2026-05-07 12:46 | 36.75964 | 26.47657 | 28385 ft | 487 kts | 124° |
| 2026-05-07 12:46 | 36.74077 | 26.51150 | 28753 ft | 490 kts | 124° |
| 2026-05-07 12:47 | 36.72173 | 26.54673 | 29095 ft | 493 kts | 124° |
| 2026-05-07 12:47 | 36.70255 | 26.58218 | 29434 ft | 495 kts | 124° |
| 2026-05-07 12:47 | 36.68338 | 26.61756 | 29719 ft | 499 kts | 124° |
| 2026-05-07 12:47 | 36.66390 | 26.65349 | 30147 ft | 498 kts | 125° |
| 2026-05-07 12:48 | 36.64460 | 26.68906 | 30572 ft | 497 kts | 124° |
| 2026-05-07 12:48 | 36.62537 | 26.72446 | 30978 ft | 497 kts | 125° |
| 2026-05-07 12:48 | 36.60609 | 26.75990 | 31396 ft | 496 kts | 125° |
| 2026-05-07 12:48 | 36.58677 | 26.79539 | 31782 ft | 496 kts | 124° |
| 2026-05-07 12:49 | 36.56737 | 26.83099 | 32074 ft | 498 kts | 125° |
| 2026-05-07 12:49 | 36.54797 | 26.86655 | 32445 ft | 497 kts | 124° |
| 2026-05-07 12:49 | 36.52851 | 26.90217 | 32768 ft | 498 kts | 124° |
| 2026-05-07 12:49 | 36.50906 | 26.93775 | 33093 ft | 498 kts | 124° |
| 2026-05-07 12:50 | 36.48980 | 26.97296 | 33432 ft | 497 kts | 124° |
| 2026-05-07 12:50 | 36.47047 | 27.00823 | 33763 ft | 497 kts | 124° |
| 2026-05-07 12:50 | 36.45095 | 27.04384 | 34031 ft | 497 kts | 124° |
| 2026-05-07 12:50 | 36.43148 | 27.07931 | 34327 ft | 498 kts | 124° |
| 2026-05-07 12:51 | 36.41198 | 27.11479 | 34556 ft | 500 kts | 124° |
| 2026-05-07 12:51 | 36.39234 | 27.15048 | 34764 ft | 501 kts | 124° |
| 2026-05-07 12:51 | 36.37284 | 27.18589 | 34988 ft | 503 kts | 124° |
| 2026-05-07 12:51 | 36.35316 | 27.22161 | 35116 ft | 507 kts | 124° |
| 2026-05-07 12:52 | 36.31284 | 27.29463 | 35113 ft | 518 kts | 124° |
| 2026-05-07 12:52 | 36.27203 | 27.36838 | 35115 ft | 525 kts | 124° |
| 2026-05-07 12:53 | 36.23074 | 27.44285 | 35122 ft | 527 kts | 124° |
| 2026-05-07 12:53 | 36.18942 | 27.51718 | 35123 ft | 526 kts | 124° |
| 2026-05-07 12:54 | 36.14788 | 27.59177 | 35120 ft | 525 kts | 124° |
| 2026-05-07 12:54 | 36.10641 | 27.66608 | 35134 ft | 524 kts | 124° |
| 2026-05-07 12:55 | 36.06531 | 27.73955 | 35129 ft | 523 kts | 124° |
| 2026-05-07 12:55 | 36.02394 | 27.81335 | 35128 ft | 522 kts | 124° |
| 2026-05-07 12:56 | 35.98271 | 27.88675 | 35130 ft | 524 kts | 124° |
| 2026-05-07 12:56 | 35.94122 | 27.96045 | 35178 ft | 526 kts | 124° |
| 2026-05-07 12:57 | 35.89947 | 28.03447 | 35126 ft | 522 kts | 124° |
| 2026-05-07 12:57 | 35.85792 | 28.10796 | 35149 ft | 522 kts | 124° |
| 2026-05-07 12:58 | 35.81657 | 28.18095 | 35138 ft | 522 kts | 124° |
| 2026-05-07 12:58 | 35.77490 | 28.25434 | 35143 ft | 523 kts | 124° |
| 2026-05-07 12:59 | 35.73352 | 28.32707 | 35149 ft | 524 kts | 124° |
| 2026-05-07 12:59 | 35.69164 | 28.40054 | 35137 ft | 524 kts | 124° |
| 2026-05-07 13:00 | 35.64971 | 28.47392 | 35134 ft | 525 kts | 124° |
| 2026-05-07 13:00 | 35.60762 | 28.54745 | 35131 ft | 526 kts | 124° |
| 2026-05-07 13:01 | 35.56578 | 28.62036 | 35136 ft | 525 kts | 123° |
| 2026-05-07 13:01 | 35.52367 | 28.69360 | 35134 ft | 525 kts | 124° |
| 2026-05-07 13:02 | 35.48157 | 28.76669 | 35135 ft | 525 kts | 124° |
| 2026-05-07 13:02 | 35.43948 | 28.83959 | 35135 ft | 525 kts | 124° |
| 2026-05-07 13:03 | 35.39746 | 28.91221 | 35132 ft | 525 kts | 124° |
| 2026-05-07 13:03 | 35.35513 | 28.98523 | 35141 ft | 524 kts | 124° |
| 2026-05-07 13:04 | 35.31299 | 29.05777 | 35135 ft | 524 kts | 124° |
| 2026-05-07 13:04 | 35.27074 | 29.13035 | 35136 ft | 524 kts | 124° |
| 2026-05-07 13:05 | 35.22852 | 29.20274 | 35136 ft | 525 kts | 124° |
| 2026-05-07 13:05 | 35.18606 | 29.27537 | 35139 ft | 525 kts | 124° |
| 2026-05-07 13:06 | 35.14374 | 29.34762 | 35135 ft | 524 kts | 124° |
| 2026-05-07 13:06 | 35.10152 | 29.41956 | 35133 ft | 524 kts | 124° |
| 2026-05-07 13:07 | 35.05897 | 29.49190 | 35135 ft | 524 kts | 124° |
| 2026-05-07 13:07 | 35.01659 | 29.56381 | 35135 ft | 524 kts | 123° |
| 2026-05-07 13:08 | 34.97432 | 29.63539 | 35133 ft | 523 kts | 123° |
| 2026-05-07 13:08 | 34.93176 | 29.70730 | 35133 ft | 523 kts | 124° |
| 2026-05-07 13:09 | 34.88929 | 29.77893 | 35133 ft | 522 kts | 124° |
| 2026-05-07 13:09 | 34.84697 | 29.85017 | 35137 ft | 522 kts | 124° |
| 2026-05-07 13:10 | 34.80435 | 29.92174 | 35132 ft | 522 kts | 124° |
| 2026-05-07 13:10 | 34.76038 | 29.99209 | 35130 ft | 523 kts | 130° |
| 2026-05-07 13:11 | 34.70689 | 30.05163 | 35133 ft | 524 kts | 140° |
| 2026-05-07 13:11 | 34.65086 | 30.10822 | 35130 ft | 525 kts | 140° |
| 2026-05-07 13:12 | 34.59502 | 30.16457 | 35133 ft | 525 kts | 140° |
| 2026-05-07 13:12 | 34.53890 | 30.22110 | 35130 ft | 524 kts | 140° |
| 2026-05-07 13:13 | 34.48316 | 30.27716 | 35130 ft | 524 kts | 140° |
| 2026-05-07 13:13 | 34.42705 | 30.33349 | 35134 ft | 524 kts | 140° |
| 2026-05-07 13:14 | 34.37079 | 30.38987 | 35131 ft | 524 kts | 140° |
| 2026-05-07 13:14 | 34.31467 | 30.44601 | 35134 ft | 523 kts | 140° |
| 2026-05-07 13:15 | 34.25869 | 30.50192 | 35137 ft | 523 kts | 140° |
| 2026-05-07 13:15 | 34.20302 | 30.55743 | 35136 ft | 523 kts | 140° |
| 2026-05-07 13:16 | 34.14678 | 30.61339 | 35136 ft | 524 kts | 140° |
| 2026-05-07 13:16 | 34.09054 | 30.66926 | 35133 ft | 523 kts | 140° |
| 2026-05-07 13:17 | 34.03456 | 30.72478 | 35134 ft | 523 kts | 140° |
| 2026-05-07 13:17 | 33.97817 | 30.78059 | 35134 ft | 522 kts | 140° |
| 2026-05-07 13:18 | 33.92226 | 30.83584 | 35133 ft | 522 kts | 140° |
| 2026-05-07 13:18 | 33.86617 | 30.89118 | 35131 ft | 522 kts | 140° |
| 2026-05-07 13:19 | 33.81007 | 30.94642 | 35131 ft | 522 kts | 140° |
| 2026-05-07 13:19 | 33.75395 | 31.00158 | 35127 ft | 521 kts | 140° |
| 2026-05-07 13:20 | 33.69764 | 31.05684 | 35125 ft | 521 kts | 140° |
| 2026-05-07 13:20 | 33.64159 | 31.11174 | 35119 ft | 522 kts | 140° |
| 2026-05-07 13:21 | 33.58535 | 31.16674 | 35120 ft | 521 kts | 141° |
| 2026-05-07 13:21 | 33.52909 | 31.22166 | 35126 ft | 521 kts | 140° |
| 2026-05-07 13:22 | 33.47322 | 31.27610 | 35120 ft | 520 kts | 140° |
| 2026-05-07 13:22 | 33.41698 | 31.33082 | 35123 ft | 520 kts | 141° |
| 2026-05-07 13:23 | 33.36101 | 31.38518 | 35115 ft | 520 kts | 141° |
| 2026-05-07 13:23 | 33.30506 | 31.43942 | 35114 ft | 519 kts | 141° |
| 2026-05-07 13:24 | 33.24912 | 31.49356 | 35111 ft | 518 kts | 140° |
| 2026-05-07 13:24 | 33.19320 | 31.54759 | 35114 ft | 518 kts | 140° |
| 2026-05-07 13:25 | 33.13730 | 31.60150 | 35115 ft | 518 kts | 140° |
| 2026-05-07 13:25 | 33.08120 | 31.65553 | 35112 ft | 517 kts | 141° |
| 2026-05-07 13:26 | 33.02517 | 31.70939 | 35114 ft | 517 kts | 141° |
| 2026-05-07 13:26 | 32.96940 | 31.76291 | 35115 ft | 516 kts | 141° |
| 2026-05-07 13:27 | 32.91352 | 31.81644 | 35111 ft | 515 kts | 141° |
| 2026-05-07 13:27 | 32.85794 | 31.86961 | 35111 ft | 514 kts | 141° |
| 2026-05-07 13:28 | 32.80229 | 31.92275 | 35111 ft | 514 kts | 141° |
| 2026-05-07 13:28 | 32.74669 | 31.97575 | 35111 ft | 513 kts | 141° |
| 2026-05-07 13:29 | 32.69080 | 32.02895 | 35108 ft | 513 kts | 141° |
| 2026-05-07 13:29 | 32.63580 | 32.08192 | 35105 ft | 512 kts | 137° |
| 2026-05-07 13:30 | 32.58643 | 32.14292 | 35101 ft | 511 kts | 132° |
| 2026-05-07 13:30 | 32.53824 | 32.20437 | 35102 ft | 511 kts | 132° |
| 2026-05-07 13:31 | 32.48995 | 32.26580 | 35097 ft | 510 kts | 132° |
| 2026-05-07 13:31 | 32.44146 | 32.32735 | 35100 ft | 509 kts | 133° |
| 2026-05-07 13:32 | 32.39317 | 32.38855 | 35098 ft | 509 kts | 132° |
| 2026-05-07 13:32 | 32.34489 | 32.44961 | 35099 ft | 508 kts | 133° |
| 2026-05-07 13:33 | 32.29703 | 32.51003 | 35097 ft | 508 kts | 133° |
| 2026-05-07 13:33 | 32.24865 | 32.57098 | 35095 ft | 508 kts | 133° |
| 2026-05-07 13:34 | 32.17655 | 32.66163 | 35095 ft | 507 kts | 133° |
| 2026-05-07 13:35 | 32.12809 | 32.72243 | 35095 ft | 506 kts | 134° |
| 2026-05-07 13:35 | 32.07976 | 32.78296 | 35093 ft | 505 kts | 134° |
| 2026-05-07 13:36 | 32.03188 | 32.84283 | 35092 ft | 504 kts | 134° |
| 2026-05-07 13:36 | 31.98362 | 32.90308 | 35092 ft | 503 kts | 134° |
| 2026-05-07 13:37 | 31.93570 | 32.96281 | 35089 ft | 503 kts | 134° |
| 2026-05-07 13:37 | 31.88741 | 33.02209 | 35091 ft | 502 kts | 137° |
| 2026-05-07 13:38 | 31.83226 | 33.07200 | 35081 ft | 499 kts | 150° |
| 2026-05-07 13:38 | 31.76998 | 33.10650 | 35085 ft | 496 kts | 163° |
| 2026-05-07 13:39 | 31.70336 | 33.12463 | 35084 ft | 490 kts | 176° |
| 2026-05-07 13:39 | 31.63520 | 33.12937 | 35080 ft | 488 kts | 180° |
| 2026-05-07 13:40 | 31.56761 | 33.13278 | 35082 ft | 488 kts | 180° |
| 2026-05-07 13:40 | 31.49995 | 33.13619 | 35077 ft | 488 kts | 180° |
| 2026-05-07 13:41 | 31.43193 | 33.13971 | 35080 ft | 488 kts | 179° |
| 2026-05-07 13:41 | 31.36458 | 33.15310 | 35072 ft | 492 kts | 166° |
| 2026-05-07 13:42 | 31.30145 | 33.18391 | 35076 ft | 495 kts | 153° |
| 2026-05-07 13:42 | 31.24065 | 33.22236 | 35072 ft | 495 kts | 153° |
| 2026-05-07 13:43 | 31.18034 | 33.26040 | 35067 ft | 495 kts | 153° |
| 2026-05-07 13:43 | 31.11976 | 33.29855 | 35070 ft | 495 kts | 153° |
| 2026-05-07 13:44 | 31.05896 | 33.33677 | 35068 ft | 495 kts | 153° |
| 2026-05-07 13:44 | 30.99857 | 33.37467 | 35065 ft | 494 kts | 153° |
| 2026-05-07 13:45 | 30.93821 | 33.41249 | 35066 ft | 493 kts | 153° |
| 2026-05-07 13:45 | 30.87745 | 33.45051 | 35063 ft | 493 kts | 153° |
| 2026-05-07 13:46 | 30.81721 | 33.48815 | 35063 ft | 493 kts | 153° |
| 2026-05-07 13:46 | 30.75663 | 33.52594 | 35064 ft | 493 kts | 153° |
| 2026-05-07 13:47 | 30.69640 | 33.56345 | 35062 ft | 493 kts | 153° |
| 2026-05-07 13:47 | 30.63567 | 33.60122 | 35060 ft | 493 kts | 153° |
| 2026-05-07 13:48 | 30.57554 | 33.63856 | 35052 ft | 493 kts | 153° |
| 2026-05-07 13:48 | 30.51463 | 33.67634 | 35046 ft | 492 kts | 153° |
| 2026-05-07 13:49 | 30.45420 | 33.71376 | 35038 ft | 492 kts | 153° |
| 2026-05-07 13:49 | 30.39398 | 33.75100 | 35049 ft | 492 kts | 153° |
| 2026-05-07 13:50 | 30.33364 | 33.78827 | 35034 ft | 492 kts | 153° |
| 2026-05-07 13:50 | 30.27301 | 33.82565 | 35040 ft | 492 kts | 153° |
| 2026-05-07 13:51 | 30.21281 | 33.86272 | 35034 ft | 492 kts | 153° |
| 2026-05-07 13:51 | 30.15243 | 33.89984 | 35031 ft | 491 kts | 153° |
| 2026-05-07 13:52 | 30.09205 | 33.93692 | 35034 ft | 491 kts | 153° |
| 2026-05-07 13:52 | 30.03188 | 33.97381 | 35031 ft | 491 kts | 153° |
| 2026-05-07 13:53 | 29.97172 | 34.01065 | 35033 ft | 491 kts | 153° |
| 2026-05-07 13:53 | 29.91146 | 34.04750 | 35030 ft | 491 kts | 153° |
| 2026-05-07 13:54 | 29.85067 | 34.08463 | 35037 ft | 490 kts | 153° |
| 2026-05-07 13:54 | 29.79020 | 34.12150 | 35035 ft | 490 kts | 153° |
| 2026-05-07 13:55 | 29.73185 | 34.16174 | 35047 ft | 491 kts | 144° |
| 2026-05-07 13:55 | 29.68161 | 34.21514 | 35046 ft | 493 kts | 131° |
| 2026-05-07 13:56 | 29.64277 | 34.27983 | 35052 ft | 494 kts | 118° |
| 2026-05-07 13:56 | 29.61744 | 34.35289 | 35057 ft | 494 kts | 104° |
| 2026-05-07 13:57 | 29.60716 | 34.43043 | 35063 ft | 493 kts | 91° |
| 2026-05-07 13:57 | 29.60026 | 34.50856 | 35059 ft | 495 kts | 101° |
| 2026-05-07 13:58 | 29.57923 | 34.58323 | 35062 ft | 495 kts | 114° |
| 2026-05-07 13:58 | 29.54442 | 34.65122 | 35055 ft | 494 kts | 128° |
| 2026-05-07 13:59 | 29.50445 | 34.71560 | 35047 ft | 494 kts | 123° |
| 2026-05-07 13:59 | 29.47031 | 34.78424 | 35024 ft | 495 kts | 117° |
| 2026-05-07 14:00 | 29.44279 | 34.85648 | 34999 ft | 495 kts | 111° |
| 2026-05-07 14:00 | 29.42249 | 34.93161 | 34986 ft | 496 kts | 102° |
| 2026-05-07 14:01 | 29.41783 | 35.00973 | 34970 ft | 495 kts | 84° |
| 2026-05-07 14:01 | 29.43189 | 35.08690 | 34995 ft | 494 kts | 74° |
| 2026-05-07 14:02 | 29.44913 | 35.16323 | 35019 ft | 495 kts | 75° |
| 2026-05-07 14:02 | 29.46580 | 35.23925 | 35040 ft | 494 kts | 75° |
| 2026-05-07 14:03 | 29.48198 | 35.31578 | 35045 ft | 495 kts | 75° |
| 2026-05-07 14:03 | 29.49799 | 35.39263 | 35059 ft | 495 kts | 76° |
| 2026-05-07 14:04 | 29.51372 | 35.46899 | 35061 ft | 495 kts | 76° |
| 2026-05-07 14:04 | 29.52940 | 35.54583 | 35061 ft | 496 kts | 76° |
| 2026-05-07 14:05 | 29.54503 | 35.62308 | 35057 ft | 496 kts | 76° |
| 2026-05-07 14:05 | 29.56057 | 35.70033 | 35054 ft | 496 kts | 76° |
| 2026-05-07 14:06 | 29.57597 | 35.77740 | 35049 ft | 496 kts | 77° |
| 2026-05-07 14:06 | 29.59131 | 35.85451 | 35054 ft | 496 kts | 77° |
| 2026-05-07 14:07 | 29.60654 | 35.93148 | 35061 ft | 497 kts | 77° |
| 2026-05-07 14:07 | 29.62183 | 36.00906 | 35075 ft | 497 kts | 77° |
| 2026-05-07 14:08 | 29.63703 | 36.08653 | 35074 ft | 498 kts | 77° |
| 2026-05-07 14:08 | 29.65227 | 36.16447 | 35058 ft | 498 kts | 77° |
| 2026-05-07 14:09 | 29.66734 | 36.24187 | 35055 ft | 498 kts | 77° |
| 2026-05-07 14:09 | 29.68242 | 36.31956 | 35056 ft | 498 kts | 77° |
| 2026-05-07 14:10 | 29.69738 | 36.39696 | 35059 ft | 498 kts | 77° |
| 2026-05-07 14:10 | 29.71233 | 36.47455 | 35069 ft | 498 kts | 77° |
| 2026-05-07 14:11 | 29.72731 | 36.55254 | 35074 ft | 499 kts | 77° |
| 2026-05-07 14:11 | 29.74151 | 36.63081 | 35081 ft | 499 kts | 81° |
| 2026-05-07 14:12 | 29.74387 | 36.71068 | 35084 ft | 498 kts | 96° |
| 2026-05-07 14:12 | 29.73175 | 36.78858 | 35083 ft | 497 kts | 104° |
| 2026-05-07 14:13 | 29.71633 | 36.86577 | 35084 ft | 497 kts | 105° |
| 2026-05-07 14:13 | 29.70086 | 36.94314 | 35085 ft | 497 kts | 105° |
| 2026-05-07 14:14 | 29.68529 | 37.02076 | 35084 ft | 497 kts | 105° |
| 2026-05-07 14:14 | 29.66973 | 37.09816 | 35077 ft | 498 kts | 105° |
| 2026-05-07 14:15 | 29.65413 | 37.17549 | 35085 ft | 499 kts | 105° |
| 2026-05-07 14:15 | 29.63841 | 37.25324 | 35084 ft | 499 kts | 105° |
| 2026-05-07 14:16 | 29.62268 | 37.33077 | 35091 ft | 501 kts | 106° |
| 2026-05-07 14:16 | 29.60684 | 37.40857 | 35086 ft | 502 kts | 106° |
| 2026-05-07 14:17 | 29.59083 | 37.48697 | 35089 ft | 504 kts | 106° |
| 2026-05-07 14:17 | 29.57491 | 37.56480 | 35061 ft | 502 kts | 106° |
| 2026-05-07 14:18 | 29.55896 | 37.64243 | 35052 ft | 502 kts | 107° |
| 2026-05-07 14:18 | 29.54285 | 37.72064 | 35041 ft | 502 kts | 107° |
| 2026-05-07 14:19 | 29.52679 | 37.79832 | 35022 ft | 502 kts | 108° |
| 2026-05-07 14:19 | 29.51065 | 37.87620 | 35015 ft | 502 kts | 108° |
| 2026-05-07 14:20 | 29.49443 | 37.95417 | 35014 ft | 502 kts | 108° |
| 2026-05-07 14:20 | 29.47938 | 38.03205 | 35005 ft | 503 kts | 106° |
| 2026-05-07 14:21 | 29.46548 | 38.11077 | 35002 ft | 504 kts | 106° |
| 2026-05-07 14:21 | 29.45152 | 38.18945 | 35007 ft | 505 kts | 106° |
| 2026-05-07 14:22 | 29.43742 | 38.26860 | 35012 ft | 507 kts | 106° |
| 2026-05-07 14:22 | 29.42332 | 38.34748 | 35011 ft | 507 kts | 107° |
| 2026-05-07 14:23 | 29.40914 | 38.42650 | 35007 ft | 508 kts | 107° |
| 2026-05-07 14:23 | 29.39485 | 38.50583 | 34996 ft | 509 kts | 107° |
| 2026-05-07 14:24 | 29.38057 | 38.58488 | 35000 ft | 510 kts | 107° |
| 2026-05-07 14:24 | 29.36615 | 38.66436 | 35003 ft | 510 kts | 108° |
| 2026-05-07 14:25 | 29.35171 | 38.74366 | 35007 ft | 511 kts | 108° |
| 2026-05-07 14:25 | 29.33711 | 38.82359 | 34933 ft | 509 kts | 108° |
| 2026-05-07 14:26 | 29.32251 | 38.90282 | 35009 ft | 513 kts | 109° |
| 2026-05-07 14:26 | 29.30614 | 38.98193 | 35049 ft | 513 kts | 110° |
| 2026-05-07 14:26 | 29.29778 | 39.02200 | 35175 ft | 512 kts | 110° |
| 2026-05-07 14:27 | 29.28952 | 39.06148 | 35289 ft | 511 kts | 110° |
| 2026-05-07 14:27 | 29.28125 | 39.10088 | 35682 ft | 512 kts | 110° |
| 2026-05-07 14:27 | 29.27300 | 39.14014 | 35685 ft | 515 kts | 110° |
| 2026-05-07 14:27 | 29.26463 | 39.17992 | 35810 ft | 514 kts | 111° |
| 2026-05-07 14:28 | 29.25627 | 39.21968 | 35941 ft | 513 kts | 110° |
| 2026-05-07 14:28 | 29.24788 | 39.25948 | 36070 ft | 512 kts | 110° |
| 2026-05-07 14:28 | 29.23963 | 39.29855 | 36197 ft | 511 kts | 111° |
| 2026-05-07 14:28 | 29.23125 | 39.33820 | 36336 ft | 510 kts | 111° |
| 2026-05-07 14:29 | 29.22285 | 39.37780 | 36469 ft | 510 kts | 111° |
| 2026-05-07 14:29 | 29.21455 | 39.41693 | 36603 ft | 511 kts | 111° |
| 2026-05-07 14:29 | 29.20622 | 39.45613 | 36734 ft | 511 kts | 111° |
| 2026-05-07 14:29 | 29.19774 | 39.49598 | 36869 ft | 511 kts | 111° |
| 2026-05-07 14:30 | 29.18933 | 39.53539 | 36995 ft | 511 kts | 111° |
| 2026-05-07 14:30 | 29.17252 | 39.61402 | 37020 ft | 515 kts | 111° |
| 2026-05-07 14:31 | 29.15543 | 39.69382 | 37014 ft | 513 kts | 112° |
| 2026-05-07 14:31 | 29.13845 | 39.77287 | 37011 ft | 512 kts | 112° |
| 2026-05-07 14:32 | 29.12151 | 39.85143 | 37016 ft | 511 kts | 112° |
| 2026-05-07 14:32 | 29.10557 | 39.93042 | 37014 ft | 515 kts | 108° |
| 2026-05-07 14:33 | 29.09290 | 40.01134 | 37019 ft | 516 kts | 108° |
| 2026-05-07 14:33 | 29.08024 | 40.09168 | 37019 ft | 516 kts | 108° |
| 2026-05-07 14:34 | 29.06751 | 40.17207 | 37018 ft | 516 kts | 108° |
| 2026-05-07 14:34 | 29.05475 | 40.25233 | 37019 ft | 515 kts | 108° |
| 2026-05-07 14:35 | 29.04190 | 40.33270 | 37018 ft | 515 kts | 108° |
| 2026-05-07 14:35 | 29.02902 | 40.41297 | 37019 ft | 516 kts | 108° |
| 2026-05-07 14:36 | 29.01604 | 40.49343 | 37018 ft | 516 kts | 108° |
| 2026-05-07 14:36 | 29.00298 | 40.57412 | 37019 ft | 517 kts | 109° |
| 2026-05-07 14:37 | 28.98992 | 40.65451 | 37010 ft | 517 kts | 109° |
| 2026-05-07 14:37 | 28.97025 | 40.77493 | 37004 ft | 516 kts | 109° |
| 2026-05-07 14:38 | 28.95705 | 40.85536 | 37012 ft | 517 kts | 109° |
| 2026-05-07 14:38 | 28.94380 | 40.93573 | 37017 ft | 517 kts | 109° |
| 2026-05-07 14:39 | 28.93046 | 41.01641 | 37020 ft | 516 kts | 109° |
| 2026-05-07 14:39 | 28.91714 | 41.09660 | 37012 ft | 516 kts | 110° |
| 2026-05-07 14:40 | 28.90378 | 41.17675 | 37019 ft | 516 kts | 109° |
| 2026-05-07 14:40 | 28.89024 | 41.25761 | 37013 ft | 518 kts | 109° |
| 2026-05-07 14:41 | 28.87672 | 41.33812 | 37014 ft | 518 kts | 109° |
| 2026-05-07 14:41 | 28.86316 | 41.41852 | 37014 ft | 516 kts | 110° |
| 2026-05-07 14:42 | 28.84962 | 41.49852 | 37002 ft | 516 kts | 109° |
| 2026-05-07 14:42 | 28.83600 | 41.57870 | 37006 ft | 516 kts | 109° |
| 2026-05-07 14:43 | 28.82231 | 41.65898 | 37009 ft | 516 kts | 110° |
| 2026-05-07 14:43 | 28.80866 | 41.73871 | 37013 ft | 515 kts | 110° |
| 2026-05-07 14:44 | 28.79488 | 41.81892 | 37010 ft | 515 kts | 110° |
| 2026-05-07 14:44 | 28.78107 | 41.89898 | 37014 ft | 516 kts | 110° |
| 2026-05-07 14:45 | 28.76722 | 41.97899 | 37008 ft | 515 kts | 110° |
| 2026-05-07 14:45 | 28.75336 | 42.05880 | 37012 ft | 515 kts | 110° |
| 2026-05-07 14:46 | 28.73948 | 42.13841 | 37011 ft | 515 kts | 110° |
| 2026-05-07 14:46 | 28.72546 | 42.21850 | 37015 ft | 515 kts | 110° |
| 2026-05-07 14:47 | 28.71143 | 42.29840 | 37009 ft | 516 kts | 110° |
| 2026-05-07 14:47 | 28.69736 | 42.37817 | 37000 ft | 517 kts | 110° |
| 2026-05-07 14:48 | 28.68318 | 42.45832 | 36996 ft | 518 kts | 110° |
| 2026-05-07 14:48 | 28.66900 | 42.53818 | 36997 ft | 518 kts | 110° |
| 2026-05-07 14:49 | 28.65465 | 42.61874 | 36999 ft | 519 kts | 110° |
| 2026-05-07 14:49 | 28.64002 | 42.69908 | 36996 ft | 517 kts | 112° |
| 2026-05-07 14:50 | 28.62393 | 42.77816 | 36996 ft | 516 kts | 112° |
| 2026-05-07 14:50 | 28.60768 | 42.85772 | 36999 ft | 517 kts | 112° |
| 2026-05-07 14:51 | 28.59139 | 42.93733 | 37000 ft | 517 kts | 112° |
| 2026-05-07 14:51 | 28.57506 | 43.01689 | 36997 ft | 516 kts | 112° |
| 2026-05-07 14:52 | 28.55868 | 43.09669 | 36998 ft | 518 kts | 112° |
| 2026-05-07 14:52 | 28.54329 | 43.17632 | 36999 ft | 519 kts | 111° |
| 2026-05-07 14:53 | 28.52771 | 43.25691 | 37001 ft | 521 kts | 111° |
| 2026-05-07 14:53 | 28.51219 | 43.33697 | 37001 ft | 521 kts | 111° |
| 2026-05-07 14:54 | 28.49662 | 43.41698 | 37003 ft | 522 kts | 111° |
| 2026-05-07 14:54 | 28.48086 | 43.49768 | 37002 ft | 523 kts | 111° |
| 2026-05-07 14:55 | 28.46518 | 43.57774 | 37002 ft | 524 kts | 111° |
| 2026-05-07 14:55 | 28.44930 | 43.65856 | 37003 ft | 524 kts | 112° |
| 2026-05-07 14:56 | 28.43336 | 43.73945 | 37010 ft | 524 kts | 112° |
| 2026-05-07 14:56 | 28.41746 | 43.81981 | 37007 ft | 525 kts | 112° |
| 2026-05-07 14:57 | 28.40133 | 43.90104 | 37014 ft | 526 kts | 112° |
| 2026-05-07 14:57 | 28.38522 | 43.98191 | 37002 ft | 528 kts | 112° |
| 2026-05-07 14:58 | 28.36899 | 44.06317 | 37005 ft | 528 kts | 112° |
| 2026-05-07 14:58 | 28.35287 | 44.14366 | 37013 ft | 527 kts | 112° |
| 2026-05-07 14:59 | 28.33652 | 44.22494 | 37009 ft | 528 kts | 112° |
| 2026-05-07 14:59 | 28.32026 | 44.30556 | 36996 ft | 527 kts | 112° |
| 2026-05-07 15:00 | 28.30395 | 44.38616 | 36996 ft | 526 kts | 112° |
| 2026-05-07 15:00 | 28.28757 | 44.46684 | 36991 ft | 526 kts | 112° |
| 2026-05-07 15:01 | 28.27111 | 44.54763 | 36977 ft | 527 kts | 112° |
| 2026-05-07 15:01 | 28.25464 | 44.62819 | 36975 ft | 527 kts | 112° |
| 2026-05-07 15:02 | 28.23809 | 44.70897 | 36974 ft | 525 kts | 113° |
| 2026-05-07 15:02 | 28.22158 | 44.78930 | 36971 ft | 524 kts | 113° |
| 2026-05-07 15:03 | 28.20499 | 44.86971 | 36971 ft | 523 kts | 112° |
| 2026-05-07 15:03 | 28.18835 | 44.95005 | 36969 ft | 525 kts | 113° |
| 2026-05-07 15:04 | 28.17175 | 45.02997 | 36970 ft | 526 kts | 113° |
| 2026-05-07 15:04 | 28.15498 | 45.11046 | 36970 ft | 526 kts | 113° |
| 2026-05-07 15:05 | 28.13819 | 45.19082 | 36977 ft | 527 kts | 112° |
| 2026-05-07 15:05 | 28.12122 | 45.27178 | 36972 ft | 527 kts | 112° |
| 2026-05-07 15:06 | 28.10435 | 45.35204 | 36982 ft | 527 kts | 112° |
| 2026-05-07 15:06 | 28.08743 | 45.43226 | 36986 ft | 528 kts | 112° |
| 2026-05-07 15:07 | 28.07032 | 45.51312 | 36983 ft | 529 kts | 112° |
| 2026-05-07 15:07 | 28.05316 | 45.59398 | 36992 ft | 530 kts | 112° |
| 2026-05-07 15:08 | 28.03587 | 45.67523 | 36988 ft | 531 kts | 112° |
| 2026-05-07 15:08 | 28.01861 | 45.75606 | 36989 ft | 530 kts | 112° |
| 2026-05-07 15:09 | 28.00122 | 45.83731 | 36996 ft | 530 kts | 112° |
| 2026-05-07 15:09 | 27.98384 | 45.91817 | 36999 ft | 532 kts | 111° |
| 2026-05-07 15:10 | 27.96628 | 45.99962 | 36997 ft | 535 kts | 112° |
| 2026-05-07 15:10 | 27.94871 | 46.08090 | 36997 ft | 535 kts | 112° |
| 2026-05-07 15:11 | 27.93099 | 46.16267 | 36995 ft | 535 kts | 111° |
| 2026-05-07 15:11 | 27.91334 | 46.24386 | 36994 ft | 536 kts | 111° |
| 2026-05-07 15:12 | 27.89552 | 46.32558 | 36984 ft | 537 kts | 111° |
| 2026-05-07 15:12 | 27.87750 | 46.40796 | 36982 ft | 537 kts | 111° |
| 2026-05-07 15:13 | 27.85965 | 46.48935 | 36985 ft | 535 kts | 111° |
| 2026-05-07 15:13 | 27.84183 | 46.57035 | 36973 ft | 535 kts | 111° |
| 2026-05-07 15:14 | 27.82382 | 46.65192 | 36960 ft | 536 kts | 111° |
| 2026-05-07 15:14 | 27.80584 | 46.73319 | 36958 ft | 533 kts | 111° |
| 2026-05-07 15:15 | 27.78779 | 46.81444 | 36950 ft | 534 kts | 111° |
| 2026-05-07 15:15 | 27.76969 | 46.89570 | 36951 ft | 535 kts | 111° |
| 2026-05-07 15:16 | 27.75155 | 46.97690 | 36947 ft | 535 kts | 111° |
| 2026-05-07 15:16 | 27.73331 | 47.05829 | 36950 ft | 536 kts | 112° |
| 2026-05-07 15:17 | 27.71508 | 47.13946 | 36945 ft | 535 kts | 112° |
| 2026-05-07 15:17 | 27.69681 | 47.22053 | 36941 ft | 534 kts | 112° |
| 2026-05-07 15:18 | 27.67847 | 47.30166 | 36934 ft | 534 kts | 111° |
| 2026-05-07 15:18 | 27.66017 | 47.38238 | 36926 ft | 534 kts | 111° |
| 2026-05-07 15:19 | 27.64177 | 47.46333 | 36924 ft | 533 kts | 111° |
| 2026-05-07 15:19 | 27.62344 | 47.54373 | 36916 ft | 533 kts | 111° |
| 2026-05-07 15:20 | 27.60489 | 47.62487 | 36912 ft | 532 kts | 111° |
| 2026-05-07 15:20 | 27.58638 | 47.70556 | 36910 ft | 532 kts | 112° |
| 2026-05-07 15:21 | 27.56790 | 47.78592 | 36895 ft | 531 kts | 111° |
| 2026-05-07 15:21 | 27.54937 | 47.86629 | 36893 ft | 530 kts | 111° |
| 2026-05-07 15:22 | 27.53082 | 47.94649 | 36891 ft | 530 kts | 112° |
| 2026-05-07 15:22 | 27.51216 | 48.02648 | 36886 ft | 530 kts | 112° |
| 2026-05-07 15:23 | 27.49338 | 48.10666 | 36874 ft | 530 kts | 112° |
| 2026-05-07 15:23 | 27.47455 | 48.18703 | 36873 ft | 530 kts | 112° |
| 2026-05-07 15:24 | 27.45573 | 48.26728 | 36877 ft | 531 kts | 111° |
| 2026-05-07 15:24 | 27.43700 | 48.34697 | 36867 ft | 531 kts | 111° |
| 2026-05-07 15:25 | 27.41799 | 48.42765 | 36859 ft | 530 kts | 111° |
| 2026-05-07 15:25 | 27.39919 | 48.50727 | 36857 ft | 530 kts | 111° |
| 2026-05-07 15:26 | 27.38022 | 48.58739 | 36856 ft | 530 kts | 111° |
| 2026-05-07 15:26 | 27.36113 | 48.66780 | 36854 ft | 530 kts | 112° |
| 2026-05-07 15:27 | 27.34215 | 48.74757 | 36852 ft | 529 kts | 112° |
| 2026-05-07 15:27 | 27.32308 | 48.82748 | 36842 ft | 530 kts | 112° |
| 2026-05-07 15:28 | 27.30400 | 48.90726 | 36832 ft | 530 kts | 112° |
| 2026-05-07 15:28 | 27.28478 | 48.98739 | 36829 ft | 530 kts | 111° |
| 2026-05-07 15:29 | 27.26543 | 49.06788 | 36827 ft | 531 kts | 111° |
| 2026-05-07 15:29 | 27.24620 | 49.14761 | 36828 ft | 531 kts | 111° |
| 2026-05-07 15:30 | 27.22695 | 49.22725 | 36821 ft | 531 kts | 111° |
| 2026-05-07 15:30 | 27.20750 | 49.30750 | 36828 ft | 531 kts | 111° |
| 2026-05-07 15:31 | 27.18821 | 49.38687 | 36822 ft | 531 kts | 111° |
| 2026-05-07 15:31 | 27.16867 | 49.46709 | 36828 ft | 531 kts | 111° |
| 2026-05-07 15:32 | 27.14928 | 49.54643 | 36824 ft | 531 kts | 111° |
| 2026-05-07 15:32 | 27.12972 | 49.62631 | 36827 ft | 530 kts | 111° |
| 2026-05-07 15:33 | 27.11014 | 49.70604 | 36827 ft | 529 kts | 111° |
| 2026-05-07 15:33 | 27.09075 | 49.78479 | 36823 ft | 528 kts | 111° |
| 2026-05-07 15:34 | 27.07107 | 49.86447 | 36819 ft | 529 kts | 111° |
| 2026-05-07 15:34 | 27.05229 | 49.94388 | 36828 ft | 532 kts | 106° |
| 2026-05-07 15:35 | 27.04590 | 50.02672 | 36830 ft | 541 kts | 93° |
| 2026-05-07 15:35 | 27.04656 | 50.11084 | 36828 ft | 541 kts | 93° |
| 2026-05-07 15:36 | 27.04723 | 50.19522 | 36826 ft | 541 kts | 92° |
| 2026-05-07 15:36 | 27.04788 | 50.27940 | 36823 ft | 541 kts | 93° |
| 2026-05-07 15:37 | 27.04293 | 50.36277 | 36813 ft | 534 kts | 104° |
| 2026-05-07 15:37 | 27.02319 | 50.44211 | 36809 ft | 525 kts | 117° |
| 2026-05-07 15:38 | 26.99505 | 50.51684 | 36815 ft | 522 kts | 119° |
| 2026-05-07 15:38 | 26.96645 | 50.59166 | 36814 ft | 523 kts | 118° |
| 2026-05-07 15:39 | 26.93794 | 50.66623 | 36812 ft | 523 kts | 119° |
| 2026-05-07 15:39 | 26.90932 | 50.74102 | 36811 ft | 522 kts | 119° |
| 2026-05-07 15:40 | 26.88075 | 50.81559 | 36809 ft | 522 kts | 119° |
| 2026-05-07 15:40 | 26.85207 | 50.89039 | 36807 ft | 521 kts | 119° |
| 2026-05-07 15:41 | 26.82370 | 50.96434 | 36804 ft | 521 kts | 119° |
| 2026-05-07 15:41 | 26.79530 | 51.03886 | 36804 ft | 520 kts | 119° |
| 2026-05-07 15:42 | 26.76787 | 51.11348 | 36808 ft | 523 kts | 115° |
| 2026-05-07 15:42 | 26.74335 | 51.19029 | 36805 ft | 524 kts | 115° |
| 2026-05-07 15:43 | 26.71882 | 51.26687 | 36804 ft | 524 kts | 114° |
| 2026-05-07 15:43 | 26.69432 | 51.34318 | 36809 ft | 524 kts | 114° |
| 2026-05-07 15:44 | 26.66966 | 51.41979 | 36805 ft | 523 kts | 114° |
| 2026-05-07 15:44 | 26.64519 | 51.49591 | 36805 ft | 523 kts | 114° |
| 2026-05-07 15:45 | 26.62072 | 51.57205 | 36809 ft | 522 kts | 115° |
| 2026-05-07 15:45 | 26.59602 | 51.64874 | 36798 ft | 522 kts | 114° |
| 2026-05-07 15:46 | 26.55926 | 51.76258 | 36791 ft | 521 kts | 115° |
| 2026-05-07 15:47 | 26.53473 | 51.83838 | 36798 ft | 521 kts | 115° |
| 2026-05-07 15:47 | 26.50975 | 51.91456 | 36796 ft | 521 kts | 115° |
| 2026-05-07 15:48 | 26.48460 | 51.99020 | 36797 ft | 521 kts | 115° |
| 2026-05-07 15:48 | 26.45943 | 52.06577 | 36794 ft | 520 kts | 115° |
| 2026-05-07 15:49 | 26.43434 | 52.14098 | 36804 ft | 519 kts | 115° |
| 2026-05-07 15:49 | 26.40902 | 52.21666 | 36802 ft | 519 kts | 115° |
| 2026-05-07 15:50 | 26.38394 | 52.29148 | 36794 ft | 519 kts | 115° |
| 2026-05-07 15:50 | 26.35871 | 52.36658 | 36789 ft | 519 kts | 115° |
| 2026-05-07 15:51 | 26.33154 | 52.44117 | 36788 ft | 516 kts | 117° |
| 2026-05-07 15:51 | 26.30327 | 52.51444 | 36790 ft | 516 kts | 117° |
| 2026-05-07 15:52 | 26.27496 | 52.58783 | 36788 ft | 516 kts | 117° |
| 2026-05-07 15:52 | 26.24670 | 52.66103 | 36790 ft | 516 kts | 117° |
| 2026-05-07 15:53 | 26.21866 | 52.73402 | 36789 ft | 516 kts | 117° |
| 2026-05-07 15:53 | 26.19054 | 52.80736 | 36787 ft | 516 kts | 117° |
| 2026-05-07 15:54 | 26.16228 | 52.88095 | 36800 ft | 512 kts | 117° |
| 2026-05-07 15:54 | 26.13461 | 52.95290 | 36810 ft | 509 kts | 117° |
| 2026-05-07 15:54 | 26.12063 | 52.98917 | 36595 ft | 515 kts | 117° |
| 2026-05-07 15:55 | 26.10633 | 53.02623 | 36348 ft | 518 kts | 117° |
| 2026-05-07 15:55 | 26.09237 | 53.06334 | 36078 ft | 520 kts | 116° |
| 2026-05-07 15:55 | 26.07873 | 53.10049 | 35581 ft | 522 kts | 116° |
| 2026-05-07 15:55 | 26.06503 | 53.13781 | 35087 ft | 520 kts | 115° |
| 2026-05-07 15:56 | 26.05144 | 53.17477 | 34597 ft | 520 kts | 115° |
| 2026-05-07 15:56 | 26.03782 | 53.21176 | 34109 ft | 520 kts | 115° |
| 2026-05-07 15:56 | 26.02410 | 53.24901 | 33611 ft | 521 kts | 115° |
| 2026-05-07 15:56 | 26.01052 | 53.28582 | 33122 ft | 522 kts | 115° |
| 2026-05-07 15:57 | 25.99669 | 53.32327 | 32636 ft | 521 kts | 115° |
| 2026-05-07 15:57 | 25.98306 | 53.36048 | 32182 ft | 517 kts | 114° |
| 2026-05-07 15:57 | 25.97092 | 53.39751 | 31886 ft | 514 kts | 110° |
| 2026-05-07 15:57 | 25.95941 | 53.43494 | 31402 ft | 511 kts | 114° |
| 2026-05-07 15:58 | 25.94563 | 53.47121 | 30946 ft | 504 kts | 116° |
| 2026-05-07 15:58 | 25.93207 | 53.50663 | 30797 ft | 498 kts | 116° |
| 2026-05-07 15:58 | 25.91872 | 53.54219 | 30792 ft | 497 kts | 115° |
| 2026-05-07 15:59 | 25.89346 | 53.61354 | 30799 ft | 501 kts | 114° |
| 2026-05-07 15:59 | 25.86813 | 53.68638 | 30803 ft | 504 kts | 114° |
| 2026-05-07 16:00 | 25.84287 | 53.75893 | 30791 ft | 505 kts | 114° |
| 2026-05-07 16:00 | 25.81752 | 53.83167 | 30782 ft | 504 kts | 114° |
| 2026-05-07 16:01 | 25.79220 | 53.90421 | 30536 ft | 509 kts | 113° |
| 2026-05-07 16:01 | 25.77949 | 53.94069 | 29960 ft | 510 kts | 113° |
| 2026-05-07 16:01 | 25.76978 | 53.97855 | 29331 ft | 510 kts | 102° |
| 2026-05-07 16:01 | 25.76713 | 54.01730 | 28650 ft | 509 kts | 89° |
| 2026-05-07 16:02 | 25.77189 | 54.05574 | 27948 ft | 502 kts | 76° |
| 2026-05-07 16:02 | 25.78268 | 54.09269 | 27227 ft | 495 kts | 70° |
| 2026-05-07 16:02 | 25.79390 | 54.12782 | 26606 ft | 486 kts | 70° |
| 2026-05-07 16:02 | 25.80510 | 54.16311 | 25964 ft | 478 kts | 70° |
| 2026-05-07 16:03 | 25.81598 | 54.19745 | 25339 ft | 470 kts | 71° |
| 2026-05-07 16:03 | 25.82670 | 54.23128 | 24721 ft | 462 kts | 71° |
| 2026-05-07 16:03 | 25.83734 | 54.26488 | 24106 ft | 456 kts | 71° |
| 2026-05-07 16:03 | 25.84762 | 54.29737 | 23514 ft | 450 kts | 71° |
| 2026-05-07 16:04 | 25.85796 | 54.33009 | 22922 ft | 442 kts | 71° |
| 2026-05-07 16:04 | 25.86793 | 54.36189 | 22336 ft | 433 kts | 72° |
| 2026-05-07 16:04 | 25.87393 | 54.39412 | 21761 ft | 423 kts | 86° |
| 2026-05-07 16:04 | 25.87256 | 54.42624 | 21176 ft | 413 kts | 101° |
| 2026-05-07 16:05 | 25.86509 | 54.45660 | 20590 ft | 405 kts | 110° |
| 2026-05-07 16:05 | 25.85591 | 54.48536 | 20076 ft | 396 kts | 110° |
| 2026-05-07 16:05 | 25.84687 | 54.51386 | 19564 ft | 388 kts | 110° |
| 2026-05-07 16:05 | 25.83806 | 54.54165 | 19059 ft | 380 kts | 110° |
| 2026-05-07 16:06 | 25.82931 | 54.56917 | 18561 ft | 373 kts | 110° |
| 2026-05-07 16:06 | 25.82074 | 54.59595 | 18072 ft | 366 kts | 110° |
| 2026-05-07 16:06 | 25.81222 | 54.62262 | 17586 ft | 359 kts | 110° |
| 2026-05-07 16:06 | 25.80397 | 54.64845 | 17117 ft | 352 kts | 110° |
| 2026-05-07 16:07 | 25.79585 | 54.67384 | 16654 ft | 346 kts | 110° |
| 2026-05-07 16:07 | 25.78792 | 54.69857 | 16200 ft | 340 kts | 110° |
| 2026-05-07 16:07 | 25.78002 | 54.72319 | 15745 ft | 335 kts | 110° |
| 2026-05-07 16:07 | 25.77233 | 54.74717 | 15308 ft | 330 kts | 110° |
| 2026-05-07 16:08 | 25.76463 | 54.77123 | 14872 ft | 325 kts | 110° |
| 2026-05-07 16:08 | 25.75714 | 54.79457 | 14451 ft | 320 kts | 110° |
| 2026-05-07 16:08 | 25.74984 | 54.81735 | 14279 ft | 308 kts | 110° |
| 2026-05-07 16:08 | 25.74263 | 54.83984 | 13783 ft | 308 kts | 109° |
| 2026-05-07 16:09 | 25.73550 | 54.86213 | 13403 ft | 304 kts | 109° |
| 2026-05-07 16:09 | 25.72842 | 54.88422 | 12990 ft | 302 kts | 109° |
| 2026-05-07 16:09 | 25.72150 | 54.90585 | 12599 ft | 299 kts | 109° |
| 2026-05-07 16:09 | 25.71458 | 54.92742 | 12215 ft | 296 kts | 109° |
| 2026-05-07 16:10 | 25.70772 | 54.94886 | 11827 ft | 294 kts | 109° |
| 2026-05-07 16:10 | 25.70099 | 54.97017 | 11525 ft | 288 kts | 108° |
| 2026-05-07 16:10 | 25.69456 | 54.99056 | 11386 ft | 277 kts | 108° |
| 2026-05-07 16:10 | 25.68818 | 55.01078 | 11328 ft | 276 kts | 108° |
| 2026-05-07 16:11 | 25.68166 | 55.03078 | 11051 ft | 280 kts | 112° |
| 2026-05-07 16:11 | 25.67270 | 55.04997 | 10860 ft | 276 kts | 119° |
| 2026-05-07 16:11 | 25.66306 | 55.06832 | 10657 ft | 276 kts | 118° |
| 2026-05-07 16:11 | 25.65338 | 55.08684 | 10440 ft | 276 kts | 118° |
| 2026-05-07 16:12 | 25.64382 | 55.10516 | 10257 ft | 276 kts | 119° |
| 2026-05-07 16:12 | 25.63412 | 55.12380 | 10051 ft | 277 kts | 118° |
| 2026-05-07 16:12 | 25.62458 | 55.14213 | 9850 ft | 277 kts | 119° |
| 2026-05-07 16:12 | 25.61496 | 55.16064 | 9642 ft | 277 kts | 119° |
| 2026-05-07 16:13 | 25.60529 | 55.17924 | 9437 ft | 277 kts | 119° |
| 2026-05-07 16:13 | 25.59564 | 55.19779 | 9250 ft | 278 kts | 119° |
| 2026-05-07 16:13 | 25.58601 | 55.21631 | 9032 ft | 277 kts | 119° |
| 2026-05-07 16:13 | 25.57645 | 55.23472 | 8829 ft | 276 kts | 119° |
| 2026-05-07 16:14 | 25.56688 | 55.25322 | 8652 ft | 275 kts | 118° |
| 2026-05-07 16:14 | 25.55739 | 55.27158 | 8417 ft | 275 kts | 119° |
| 2026-05-07 16:14 | 25.54807 | 55.28963 | 8238 ft | 271 kts | 119° |
| 2026-05-07 16:14 | 25.53853 | 55.30808 | 8018 ft | 274 kts | 119° |
| 2026-05-07 16:15 | 25.52911 | 55.32616 | 7837 ft | 272 kts | 119° |
| 2026-05-07 16:15 | 25.51961 | 55.34431 | 7689 ft | 268 kts | 119° |
| 2026-05-07 16:15 | 25.51016 | 55.36234 | 7609 ft | 271 kts | 119° |
| 2026-05-07 16:15 | 25.50075 | 55.38029 | 7483 ft | 270 kts | 119° |
| 2026-05-07 16:16 | 25.49126 | 55.39839 | 7336 ft | 270 kts | 120° |
| 2026-05-07 16:16 | 25.48170 | 55.41655 | 7198 ft | 269 kts | 120° |
| 2026-05-07 16:16 | 25.47195 | 55.43445 | 7060 ft | 268 kts | 121° |
| 2026-05-07 16:16 | 25.46228 | 55.45211 | 6926 ft | 268 kts | 121° |
| 2026-05-07 16:17 | 25.45262 | 55.46975 | 6790 ft | 267 kts | 121° |
| 2026-05-07 16:17 | 25.44256 | 55.48719 | 6650 ft | 267 kts | 123° |
| 2026-05-07 16:17 | 25.43243 | 55.50436 | 6517 ft | 266 kts | 123° |
| 2026-05-07 16:17 | 25.42226 | 55.52162 | 6385 ft | 265 kts | 123° |
| 2026-05-07 16:18 | 25.41215 | 55.53877 | 6254 ft | 260 kts | 123° |
| 2026-05-07 16:18 | 25.40239 | 55.55541 | 6044 ft | 256 kts | 123° |
| 2026-05-07 16:18 | 25.39290 | 55.57178 | 5811 ft | 247 kts | 123° |
| 2026-05-07 16:18 | 25.38390 | 55.58734 | 5568 ft | 236 kts | 123° |
| 2026-05-07 16:19 | 25.37495 | 55.60285 | 5288 ft | 240 kts | 123° |
| 2026-05-07 16:19 | 25.36595 | 55.61848 | 4915 ft | 240 kts | 123° |
| 2026-05-07 16:19 | 25.35712 | 55.63393 | 4543 ft | 238 kts | 123° |
| 2026-05-07 16:19 | 25.34824 | 55.64964 | 4162 ft | 237 kts | 123° |
| 2026-05-07 16:20 | 25.33945 | 55.66540 | 3780 ft | 236 kts | 123° |
| 2026-05-07 16:20 | 25.33095 | 55.68082 | 3413 ft | 228 kts | 123° |
| 2026-05-07 16:20 | 25.32293 | 55.69547 | 3160 ft | 215 kts | 123° |
| 2026-05-07 16:20 | 25.31343 | 55.70758 | 2914 ft | 200 kts | 152° |
| 2026-05-07 16:21 | 25.30042 | 55.71038 | 2644 ft | 187 kts | 194° |
| 2026-05-07 16:21 | 25.29000 | 55.70296 | 2508 ft | 179 kts | 233° |
| 2026-05-07 16:21 | 25.28281 | 55.69143 | 2527 ft | 182 kts | 241° |
| 2026-05-07 16:21 | 25.27651 | 55.67948 | 2510 ft | 169 kts | 241° |
| 2026-05-07 16:22 | 25.26842 | 55.67016 | 2496 ft | 167 kts | 223° |
| 2026-05-07 16:22 | 25.26176 | 55.65997 | 2499 ft | 162 kts | 250° |
| 2026-05-07 16:22 | 25.25900 | 55.64798 | 2468 ft | 153 kts | 267° |
| 2026-05-07 16:22 | 25.26173 | 55.63723 | 2196 ft | 139 kts | 300° |
| 2026-05-07 16:23 | 25.26683 | 55.62877 | 2044 ft | 131 kts | 303° |
| 2026-05-07 16:23 | 25.27183 | 55.62034 | 1834 ft | 129 kts | 302° |
| 2026-05-07 16:23 | 25.27664 | 55.61200 | 1686 ft | 129 kts | 301° |
| 2026-05-07 16:23 | 25.28143 | 55.60369 | 1521 ft | 128 kts | 302° |
| 2026-05-07 16:24 | 25.28629 | 55.59528 | 1362 ft | 128 kts | 302° |
| 2026-05-07 16:24 | 25.29113 | 55.58692 | 1199 ft | 127 kts | 302° |
| 2026-05-07 16:24 | 25.29597 | 55.57851 | 1035 ft | 127 kts | 302° |
| 2026-05-07 16:24 | 25.30071 | 55.57028 | 878 ft | 127 kts | 303° |
| 2026-05-07 16:25 | 25.30547 | 55.56206 | 735 ft | 125 kts | 303° |
| 2026-05-07 16:25 | 25.31022 | 55.55380 | 571 ft | 130 kts | 302° |
| 2026-05-07 16:25 | 25.31495 | 55.54542 | 393 ft | 126 kts | 302° |
| 2026-05-07 16:25 | 25.31966 | 55.53727 | 230 ft | 125 kts | 302° |
| 2026-05-07 16:26 | 25.32432 | 55.52920 | 115 ft | 121 kts | 303° |
| 2026-05-07 16:26 | 25.32830 | 55.52230 | 105 ft | 88 kts | 303° |
| 2026-05-07 16:26 | 25.33094 | 55.51774 | 102 ft | 43 kts | 302° |
| 2026-05-07 16:26 | 25.33156 | 55.51658 | 101 ft | 25 kts | 290° |
| 2026-05-07 16:27 | 25.33195 | 55.51424 | 99 ft | 20 kts | 273° |
| 2026-05-07 16:27 | 25.33204 | 55.51269 | 99 ft | 19 kts | 275° |
| 2026-05-07 16:27 | 25.33213 | 55.51127 | 98 ft | 18 kts | 282° |
| 2026-05-07 16:27 | 25.33277 | 55.50995 | 99 ft | 19 kts | 302° |
| 2026-05-07 16:28 | 25.33300 | 55.50907 | 99 ft | 12 kts | 244° |
| 2026-05-07 16:28 | 25.33223 | 55.50844 | 99 ft | 10 kts | 213° |
| 2026-05-07 16:28 | 25.33151 | 55.50870 | 98 ft | 15 kts | 117° |
| 2026-05-07 16:28 | 25.33085 | 55.50986 | 97 ft | 20 kts | 122° |
| 2026-05-07 16:29 | 25.33003 | 55.51128 | 97 ft | 24 kts | 122° |
| 2026-05-07 16:29 | 25.32914 | 55.51281 | 97 ft | 21 kts | 123° |
| 2026-05-07 16:29 | 25.32836 | 55.51416 | 98 ft | 21 kts | 122° |
| 2026-05-07 16:29 | 25.32757 | 55.51553 | 99 ft | 21 kts | 123° |
| 2026-05-07 16:30 | 25.32671 | 55.51702 | 100 ft | 21 kts | 122° |
| 2026-05-07 16:30 | 25.32585 | 55.51851 | 101 ft | 24 kts | 123° |
| 2026-05-07 16:30 | 25.32488 | 55.52019 | 103 ft | 27 kts | 122° |
| 2026-05-07 16:30 | 25.32381 | 55.52205 | 104 ft | 29 kts | 122° |
| 2026-05-07 16:31 | 25.32279 | 55.52381 | 106 ft | 28 kts | 122° |
| 2026-05-07 16:31 | 25.32190 | 55.52535 | 107 ft | 20 kts | 122° |
| 2026-05-07 16:31 | 25.32130 | 55.52624 | 108 ft | 11 kts | 158° |
| 2026-05-07 16:31 | 25.32055 | 55.52587 | 108 ft | 11 kts | 224° |
| 2026-05-07 16:32 | 25.32003 | 55.52522 | 107 ft | 10 kts | 205° |
| 2026-05-07 16:32 | 25.31985 | 55.52539 | 107 ft | 1 kts | 29° |
| 2026-05-07 16:37 | 25.31974 | 55.52531 | 107 ft | 2 kts | 35° |
| 2026-05-07 16:38 | 25.31962 | 55.52522 | 107 ft | 2 kts | 35° |
| 2026-05-07 16:38 | 25.31949 | 55.52512 | 107 ft | 2 kts | 35° |
| 2026-05-07 16:38 | 25.31938 | 55.52503 | 108 ft | 1 kts | 35° |
| 2026-05-07 16:38 | 25.31934 | 55.52498 | 108 ft | 1 kts | 78° |
| 2026-05-07 16:39 | 25.31931 | 55.52482 | 107 ft | 2 kts | 80° |
| 2026-05-07 16:39 | 25.31929 | 55.52466 | 107 ft | 2 kts | 80° |
| 2026-05-07 16:39 | 25.31927 | 55.52457 | 106 ft | 0 kts | 71° |
| 2026-05-07 16:39 | 25.31925 | 55.52452 | 106 ft | 0 kts | 57° |